Kezdőlap
METAR-TAF:

METAR-TAF

Repülőterek :

Oberpfaffenhofen, Németország

földrajzi szélesség: 48-05N, földrajzi hosszúság: 011-17E, magasság: 600 m

Jelenlegi meteorológiai megfigyelések

A jelentés 35 perccel ezelõtt készült, 23:50 UTC
Keleti szél 4 kt
Hőmérséklet 3°C
Páratartalom 75%
Légköri nyomás 1024 hPa
Látótávolság 10 km, vagy több

METAR: EDMO 042350Z AUTO 10004KT 9999 // NCD 03/M01 Q1024

Idő: 02:25 (00:25 UTC)

Előrejelzés

A jelentés 10 órával és 25 perccel ezelõtt készült, 14:00 UTC
Az előrejelzés 03-én 15 óra UTC és 03-én 24 óra UTC között érvényes
Nyugati szél 8 kt
Látótávolság 10 km, vagy több
Kevés felhő 3000 lábon
03-én 16 óra UTC és 03-én 18 óra UTC között fokozatosan kialakuló
Különbözõ irányokból fújó szél 3 kt

TAF: EDMO 031400Z 0315/0324 27008KT 9999 FEW030 BECMG 0316/0318 VRB03KT

Meteorológiai megfigyelések és előrejelzések több, mint 4000 repülőtéren (METAR és TAF jelentéseket).

A térképen piros és sárga pontok jelzik az elérhető meteorológiai állomásokat.

Mozgassa az egeret a pont fölött, hogy megjelenjen az állomás neve.

Azután kattintson az időjárási megfigyelések és előrejelzések megtekintéséhez.

A térkép megváltoztatása: kattintson a fekete keresztel jelölt zöld gombra ráközelítéshez, a vonallal jelölt zöld gombra távolításhoz, vagy a zöld nyilakra a szomszédos térképek eléréséhez.


METAR-TAF: